Heinz Schepers — V2OM7 — position and weather

sailwx.info

Track history (hours):
 
Tides and Currents Weather Stations Pressure Air Temp Water Temp Dewpoint Dewpoint Depression Visibility Wind Speed Wind Dir Waves Ship Positions

Heinz Schepers

Last reported at 2017-Jan-18 22:24 UTC. Time now 2017-Jan-20 01:35 UTC.
Position N 36°25' E 013°39'.

Length 101 m; draft 7.1 m.

Type: Cargo ship. MMSI: 304596000.

Date/timePositionNaut miles runAvg speedWind from/ knotsBaromVisibWave heightAir tempDewpointWater temp
2017-Jan-18 22:24N 36°25' E 013°39'8 9.6
2017-Jan-18 21:33N 36°21' E 013°48'9 9.4
2017-Jan-18 20:33N 36°17' E 013°58'9 9.3
2017-Jan-18 19:33N 36°13' E 014°08'9 9.1
2017-Jan-18 18:33N 36°08' E 014°18'10 9.6
2017-Jan-18 17:33N 35°60' E 014°25'1 0.7
2017-Jan-18 16:33N 35°59' E 014°25'0 0.0
2017-Jan-18 15:33N 35°59' E 014°25'0 0.0
2017-Jan-18 14:33N 35°59' E 014°25'0 0.0
2017-Jan-18 13:33N 35°59' E 014°25'0 0.0
2017-Jan-18 12:33N 35°59' E 014°25'0 0.0
2017-Jan-18 11:33N 35°59' E 014°25'0 0.0
2017-Jan-18 10:33N 35°59' E 014°25'0 0.0
2017-Jan-18 09:33N 35°59' E 014°25'0 0.0
2017-Jan-18 08:27N 35°59' E 014°25'0 0.0
2017-Jan-18 07:32N 35°59' E 014°25'0 0.1
2017-Jan-18 06:33N 35°59' E 014°25'2 2.1
2017-Jan-18 05:31N 36°01' E 014°23'0 0.0
2017-Jan-18 04:31N 36°01' E 014°23'0 0.0
2017-Jan-18 03:31N 36°01' E 014°23'0 0.0
2017-Jan-18 02:31N 36°01' E 014°23'0 0.0
2017-Jan-18 01:31N 36°01' E 014°23'0 0.0
2017-Jan-18 00:28N 36°01' E 014°23'0 0.0
2017-Jan-17 23:31N 36°01' E 014°23'0 0.0
2017-Jan-17 22:31N 36°01' E 014°23'2 1.7
2017-Jan-17 21:33N 36°01' E 014°25'6 6.0
2017-Jan-17 20:33N 36°06' E 014°20'1010.3
2017-Jan-17 19:33N 36°13' E 014°11'1110.6
2017-Jan-17 18:33N 36°19' E 014°00'1010.1
2017-Jan-17 17:33N 36°25' E 013°50'1010.1
2017-Jan-17 16:33N 36°31' E 013°40'2010.0
2017-Jan-17 14:33N 36°43' E 013°21'1010.2
2017-Jan-17 13:33N 36°49' E 013°10'1010.3
2017-Jan-17 12:33N 36°55' E 012°60'1110.8
2017-Jan-17 11:33N 37°02' E 012°50'20010.5
2017-Jan-16 16:33N 38°58' E 009°23'1111.2
2017-Jan-16 15:33N 39°05' E 009°11'9 9.3
2017-Jan-16 14:32N 39°13' E 009°04'0 0.1
2017-Jan-16 13:33N 39°13' E 009°04'0 0.0
2017-Jan-16 12:33N 39°13' E 009°04'0 0.0
2017-Jan-16 11:33N 39°13' E 009°04'0 0.0
2017-Jan-16 10:33N 39°13' E 009°04'0 0.0
2017-Jan-16 09:33N 39°13' E 009°04'0 0.0
2017-Jan-16 08:33N 39°13' E 009°04'0 0.0
2017-Jan-16 07:33N 39°13' E 009°04'0 0.0
2017-Jan-16 06:33N 39°13' E 009°04'0 0.0
2017-Jan-16 05:33N 39°13' E 009°04'0 0.0
2017-Jan-16 04:33N 39°13' E 009°04'0 0.0
2017-Jan-16 03:33N 39°13' E 009°04'0 0.0
2017-Jan-16 02:33N 39°13' E 009°04'0 0.0
2017-Jan-16 01:33N 39°13' E 009°04'0 0.0
2017-Jan-16 00:33N 39°13' E 009°04'0 0.0
2017-Jan-15 23:33N 39°13' E 009°04'0 0.0
2017-Jan-15 22:33N 39°13' E 009°04'0 0.0
2017-Jan-15 21:33N 39°13' E 009°04'0 0.0
2017-Jan-15 20:33N 39°13' E 009°04'0 0.0
2017-Jan-15 19:33N 39°13' E 009°04'0 0.0
2017-Jan-15 18:33N 39°13' E 009°04'0 0.0
2017-Jan-15 17:33N 39°13' E 009°04'0 0.0
2017-Jan-15 16:32N 39°13' E 009°04'0 0.0
2017-Jan-15 15:32N 39°13' E 009°04'0 0.0
2017-Jan-15 14:32N 39°13' E 009°04'0 0.0
2017-Jan-15 13:32N 39°13' E 009°04'0 0.0
2017-Jan-15 12:32N 39°13' E 009°04'0 0.0
2017-Jan-15 11:32N 39°13' E 009°04'0 0.0
2017-Jan-15 10:32N 39°13' E 009°04'0 0.0
2017-Jan-15 09:32N 39°13' E 009°04'0 0.0
2017-Jan-15 08:32N 39°13' E 009°04'0 0.0
2017-Jan-15 07:32N 39°13' E 009°04'0 0.0
2017-Jan-15 06:29N 39°13' E 009°04'0 0.0
2017-Jan-15 05:32N 39°13' E 009°04'0 0.0
2017-Jan-15 04:32N 39°13' E 009°04'0 0.0
2017-Jan-15 03:32N 39°13' E 009°04'0 0.0
2017-Jan-15 02:32N 39°13' E 009°04'0 0.0
2017-Jan-15 01:32N 39°13' E 009°04'0 0.0
2017-Jan-15 00:32N 39°13' E 009°04'0 0.0
2017-Jan-14 23:32N 39°13' E 009°04'0 0.0
2017-Jan-14 22:32N 39°13' E 009°04'0 0.0
2017-Jan-14 21:32N 39°13' E 009°04'0 0.0
2017-Jan-14 20:32N 39°13' E 009°04'0 0.0
2017-Jan-14 19:32N 39°13' E 009°04'0 0.0
2017-Jan-14 18:32N 39°13' E 009°04'0 0.0
2017-Jan-14 17:32N 39°13' E 009°04'6 5.6
2017-Jan-14 16:32N 39°08' E 009°09'1010.2
2017-Jan-14 15:33N 39°03' E 009°20'9 9.2
2017-Jan-14 14:32N 38°59' E 009°31'  
Track history (hours):
 
Tides and Currents Weather Stations Pressure Air Temp Water Temp Dewpoint Dewpoint Depression Visibility Wind Speed Wind Dir Waves Ship Positions

Heinz Schepers

Last reported at 2017-Jan-18 22:24 UTC. Time now 2017-Jan-20 01:35 UTC.
Position N 36°25' E 013°39'.

Length 101 m; draft 7.1 m.

Type: Cargo ship. MMSI: 304596000.

Date/timePositionNaut miles runAvg speedWind from/ knotsBaromVisibWave heightAir tempDewpointWater temp
2017-Jan-18 22:24N 36°25' E 013°39'8 9.6
2017-Jan-18 21:33N 36°21' E 013°48'9 9.4
2017-Jan-18 20:33N 36°17' E 013°58'9 9.3
2017-Jan-18 19:33N 36°13' E 014°08'9 9.1
2017-Jan-18 18:33N 36°08' E 014°18'10 9.6
2017-Jan-18 17:33N 35°60' E 014°25'1 0.7
2017-Jan-18 16:33N 35°59' E 014°25'0 0.0
2017-Jan-18 15:33N 35°59' E 014°25'0 0.0
2017-Jan-18 14:33N 35°59' E 014°25'0 0.0
2017-Jan-18 13:33N 35°59' E 014°25'0 0.0
2017-Jan-18 12:33N 35°59' E 014°25'0 0.0
2017-Jan-18 11:33N 35°59' E 014°25'0 0.0
2017-Jan-18 10:33N 35°59' E 014°25'0 0.0
2017-Jan-18 09:33N 35°59' E 014°25'0 0.0
2017-Jan-18 08:27N 35°59' E 014°25'0 0.0
2017-Jan-18 07:32N 35°59' E 014°25'0 0.1
2017-Jan-18 06:33N 35°59' E 014°25'2 2.1
2017-Jan-18 05:31N 36°01' E 014°23'0 0.0
2017-Jan-18 04:31N 36°01' E 014°23'0 0.0
2017-Jan-18 03:31N 36°01' E 014°23'0 0.0
2017-Jan-18 02:31N 36°01' E 014°23'0 0.0
2017-Jan-18 01:31N 36°01' E 014°23'0 0.0
2017-Jan-18 00:28N 36°01' E 014°23'0 0.0
2017-Jan-17 23:31N 36°01' E 014°23'0 0.0
2017-Jan-17 22:31N 36°01' E 014°23'2 1.7
2017-Jan-17 21:33N 36°01' E 014°25'6 6.0
2017-Jan-17 20:33N 36°06' E 014°20'1010.3
2017-Jan-17 19:33N 36°13' E 014°11'1110.6
2017-Jan-17 18:33N 36°19' E 014°00'1010.1
2017-Jan-17 17:33N 36°25' E 013°50'1010.1
2017-Jan-17 16:33N 36°31' E 013°40'2010.0
2017-Jan-17 14:33N 36°43' E 013°21'1010.2
2017-Jan-17 13:33N 36°49' E 013°10'1010.3
2017-Jan-17 12:33N 36°55' E 012°60'1110.8
2017-Jan-17 11:33N 37°02' E 012°50'20010.5
2017-Jan-16 16:33N 38°58' E 009°23'1111.2
2017-Jan-16 15:33N 39°05' E 009°11'9 9.3
2017-Jan-16 14:32N 39°13' E 009°04'0 0.1
2017-Jan-16 13:33N 39°13' E 009°04'0 0.0
2017-Jan-16 12:33N 39°13' E 009°04'0 0.0
2017-Jan-16 11:33N 39°13' E 009°04'0 0.0
2017-Jan-16 10:33N 39°13' E 009°04'0 0.0
2017-Jan-16 09:33N 39°13' E 009°04'0 0.0
2017-Jan-16 08:33N 39°13' E 009°04'0 0.0
2017-Jan-16 07:33N 39°13' E 009°04'0 0.0
2017-Jan-16 06:33N 39°13' E 009°04'0 0.0
2017-Jan-16 05:33N 39°13' E 009°04'0 0.0
2017-Jan-16 04:33N 39°13' E 009°04'0 0.0
2017-Jan-16 03:33N 39°13' E 009°04'0 0.0
2017-Jan-16 02:33N 39°13' E 009°04'0 0.0
2017-Jan-16 01:33N 39°13' E 009°04'0 0.0
2017-Jan-16 00:33N 39°13' E 009°04'0 0.0
2017-Jan-15 23:33N 39°13' E 009°04'0 0.0
2017-Jan-15 22:33N 39°13' E 009°04'0 0.0
2017-Jan-15 21:33N 39°13' E 009°04'0 0.0
2017-Jan-15 20:33N 39°13' E 009°04'0 0.0
2017-Jan-15 19:33N 39°13' E 009°04'0 0.0
2017-Jan-15 18:33N 39°13' E 009°04'0 0.0
2017-Jan-15 17:33N 39°13' E 009°04'0 0.0
2017-Jan-15 16:32N 39°13' E 009°04'0 0.0
2017-Jan-15 15:32N 39°13' E 009°04'0 0.0
2017-Jan-15 14:32N 39°13' E 009°04'0 0.0
2017-Jan-15 13:32N 39°13' E 009°04'0 0.0
2017-Jan-15 12:32N 39°13' E 009°04'0 0.0
2017-Jan-15 11:32N 39°13' E 009°04'0 0.0
2017-Jan-15 10:32N 39°13' E 009°04'0 0.0
2017-Jan-15 09:32N 39°13' E 009°04'0 0.0
2017-Jan-15 08:32N 39°13' E 009°04'0 0.0
2017-Jan-15 07:32N 39°13' E 009°04'0 0.0
2017-Jan-15 06:29N 39°13' E 009°04'0 0.0
2017-Jan-15 05:32N 39°13' E 009°04'0 0.0
2017-Jan-15 04:32N 39°13' E 009°04'0 0.0
2017-Jan-15 03:32N 39°13' E 009°04'0 0.0
2017-Jan-15 02:32N 39°13' E 009°04'0 0.0
2017-Jan-15 01:32N 39°13' E 009°04'0 0.0
2017-Jan-15 00:32N 39°13' E 009°04'0 0.0
2017-Jan-14 23:32N 39°13' E 009°04'0 0.0
2017-Jan-14 22:32N 39°13' E 009°04'0 0.0
2017-Jan-14 21:32N 39°13' E 009°04'0 0.0
2017-Jan-14 20:32N 39°13' E 009°04'0 0.0
2017-Jan-14 19:32N 39°13' E 009°04'0 0.0
2017-Jan-14 18:32N 39°13' E 009°04'0 0.0
2017-Jan-14 17:32N 39°13' E 009°04'6 5.6
2017-Jan-14 16:32N 39°08' E 009°09'1010.2
2017-Jan-14 15:33N 39°03' E 009°20'9 9.2
2017-Jan-14 14:32N 38°59' E 009°31'  

Dump ship's entire track history